Time;durP1;ratioP1;P1;durP2;ratioP2;P2;SDS_P1;SDS_P2;PMS_P1;PMS_P2;Temp;Humidity;BMP_temperature;BMP_pressure;BME280_temperature;BME280_humidity;BME280_pressure;Samples;Min_cycle;Max_cycle;Signal;HPM_P1;HPM_P2
2022/01/22 00:02:07;;;;;;;4.23;2.37;;;1.20;65.90;;;;;;5044795;28;47728;-79
2022/01/22 00:04:32;;;;;;;4.95;2.30;;;1.20;66.10;;;;;;5027002;28;46714;-83
2022/01/22 00:06:58;;;;;;;5.77;2.47;;;1.20;66.10;;;;;;5047111;28;46315;-83
2022/01/22 00:09:27;;;;;;;4.35;2.30;;;1.20;66.00;;;;;;5020114;28;46462;-83
2022/01/22 00:11:54;;;;;;;4.60;2.00;;;1.20;66.00;;;;;;5044923;28;46631;-80
2022/01/22 00:14:26;;;;;;;4.90;1.98;;;1.20;65.80;;;;;;5033883;28;46390;-79
2022/01/22 00:16:56;;;;;;;2.90;2.15;;;1.30;65.90;;;;;;5041399;28;45796;-81
2022/01/22 00:19:23;;;;;;;4.63;2.15;;;1.30;67.00;;;;;;5043071;28;46375;-81
2022/01/22 00:21:49;;;;;;;4.55;2.22;;;1.30;65.90;;;;;;5042554;28;47359;-80
2022/01/22 00:24:17;;;;;;;4.25;2.22;;;1.30;65.80;;;;;;5042918;28;46770;-81
2022/01/22 00:26:44;;;;;;;2.72;2.00;;;1.30;66.40;;;;;;5041687;28;46363;-81
2022/01/22 00:29:10;;;;;;;6.72;2.00;;;1.30;65.90;;;;;;5042106;28;46558;-81
2022/01/22 00:31:39;;;;;;;7.28;2.40;;;1.30;65.80;;;;;;5041510;28;46004;-79
2022/01/22 00:34:05;;;;;;;2.70;1.85;;;1.30;65.70;;;;;;5027172;28;46467;-80
2022/01/22 00:36:31;;;;;;;6.88;1.90;;;1.40;65.70;;;;;;5045471;28;46355;-81
2022/01/22 00:38:57;;;;;;;4.97;1.90;;;1.30;65.60;;;;;;5034368;28;46372;-81
2022/01/22 00:41:22;;;;;;;3.17;1.93;;;1.30;65.40;;;;;;5047528;28;46263;-81
2022/01/22 00:43:48;;;;;;;7.20;2.20;;;1.40;65.50;;;;;;5040888;28;46478;-79
2022/01/22 00:46:14;;;;;;;4.95;2.50;;;1.40;65.30;;;;;;5046234;28;46392;-81
2022/01/22 00:48:41;;;;;;;4.03;2.00;;;1.40;65.40;;;;;;5047374;28;47184;-82
2022/01/22 00:51:07;;;;;;;3.53;2.17;;;1.40;65.30;;;;;;5033420;28;48311;-81
2022/01/22 00:53:32;;;;;;;5.50;2.27;;;1.40;65.20;;;;;;5046758;28;45806;-81
2022/01/22 00:56:04;;;;;;;4.37;1.97;;;1.40;65.30;;;;;;5053738;28;45884;-81
2022/01/22 00:58:30;;;;;;;9.52;2.63;;;1.40;65.10;;;;;;5053366;28;45908;-80
2022/01/22 01:00:55;;;;;;;4.77;2.20;;;1.40;65.20;;;;;;5035415;28;48352;-82
2022/01/22 01:03:21;;;;;;;2.73;1.70;;;1.40;65.20;;;;;;5045605;28;45789;-79
2022/01/22 01:05:49;;;;;;;5.53;2.50;;;1.40;65.20;;;;;;5039920;28;46355;-80
2022/01/22 01:08:15;;;;;;;4.38;2.20;;;1.40;65.00;;;;;;5028714;28;46503;-81
2022/01/22 01:10:40;;;;;;;5.43;2.40;;;1.50;65.00;;;;;;5046951;28;46369;-81
2022/01/22 01:13:06;;;;;;;3.77;1.83;;;1.50;64.90;;;;;;5044616;28;46389;-81
2022/01/22 01:34:23;;;;;;;3.97;2.30;;;1.40;64.70;;;;;;5054744;28;46347;-79
2022/01/22 01:36:49;;;;;;;4.30;1.88;;;1.40;64.80;;;;;;5048775;28;46465;-82
2022/01/22 01:39:21;;;;;;;3.03;1.95;;;1.40;64.80;;;;;;5039380;28;46485;-83
2022/01/22 01:41:54;;;;;;;3.67;1.70;;;1.40;64.70;;;;;;5050605;28;47628;-81
2022/01/22 01:44:21;;;;;;;6.15;2.50;;;1.40;64.80;;;;;;5062008;28;46751;-80
2022/01/22 01:46:49;;;;;;;2.50;1.80;;;1.40;64.80;;;;;;5055755;28;46303;-82
2022/01/22 01:49:16;;;;;;;4.53;1.95;;;1.50;64.70;;;;;;5049122;28;46559;-82
2022/01/22 01:51:44;;;;;;;3.08;1.92;;;1.50;64.70;;;;;;5047539;28;46490;-81
2022/01/22 01:59:37;;;;;;;6.03;2.40;;;1.40;64.90;;;;;;5049645;28;45856;-81
2022/01/22 02:02:04;;;;;;;4.20;2.20;;;1.40;64.70;;;;;;5041784;28;49043;-81
2022/01/22 02:04:30;;;;;;;3.47;1.80;;;1.40;64.80;;;;;;5047483;28;46623;-81
2022/01/22 02:06:56;;;;;;;4.60;2.00;;;1.40;64.80;;;;;;5045629;28;46364;-80
2022/01/22 02:09:22;;;;;;;6.13;2.40;;;1.30;65.20;;;;;;5044485;28;45928;-80
2022/01/22 02:11:59;;;;;;;3.70;2.28;;;1.30;65.30;;;;;;5046218;28;46370;-81
2022/01/22 02:25:26;;;;;;;3.17;2.15;;;1.30;65.00;;;;;;5044249;28;46355;-81
2022/01/22 02:27:51;;;;;;;4.00;1.98;;;1.30;65.10;;;;;;5045228;28;46726;-81
2022/01/22 02:30:23;;;;;;;4.57;2.10;;;1.40;65.10;;;;;;5047740;28;46323;-81
2022/01/22 02:35:59;;;;;;;6.72;2.95;;;1.40;65.10;;;;;;5042855;28;46447;-81
2022/01/22 02:38:44;;;;;;;3.67;2.25;;;1.50;65.00;;;;;;5042574;28;46358;-81
2022/01/22 02:41:15;;;;;;;5.00;2.40;;;1.40;65.10;;;;;;5043166;28;46380;-81
2022/01/22 02:43:41;;;;;;;8.35;2.55;;;1.40;65.20;;;;;;5046247;28;46423;-80
2022/01/22 02:46:07;;;;;;;3.50;2.43;;;1.50;65.10;;;;;;5046724;28;46405;-80
2022/01/22 02:48:32;;;;;;;6.13;2.80;;;1.50;65.10;;;;;;5037372;28;46398;-80
2022/01/22 02:50:58;;;;;;;5.33;2.67;;;1.50;65.10;;;;;;5044098;28;46569;-82
2022/01/22 02:53:23;;;;;;;3.00;2.50;;;1.50;65.10;;;;;;5041877;28;47219;-81
2022/01/22 02:55:52;;;;;;;4.27;2.00;;;1.50;65.20;;;;;;5042985;28;46475;-80
2022/01/22 02:58:21;;;;;;;7.75;2.40;;;1.50;65.20;;;;;;5030270;28;46410;-80
2022/01/22 03:00:46;;;;;;;4.38;2.40;;;1.50;65.10;;;;;;5042529;28;46578;-80
2022/01/22 03:03:12;;;;;;;5.43;2.93;;;1.60;65.10;;;;;;5042276;28;46354;-81
2022/01/22 03:05:37;;;;;;;3.70;2.00;;;1.60;65.10;;;;;;5043565;28;46415;-82
2022/01/22 03:08:07;;;;;;;3.43;2.03;;;1.60;64.90;;;;;;5045753;28;46738;-82
2022/01/22 03:10:36;;;;;;;3.42;2.20;;;1.60;65.00;;;;;;5045697;28;45895;-82
2022/01/22 03:13:18;;;;;;;4.20;2.40;;;1.60;65.00;;;;;;5045096;28;46257;-81
2022/01/22 03:18:32;;;;;;;4.57;2.33;;;1.70;65.00;;;;;;5045334;28;46542;-83
2022/01/22 03:29:16;;;;;;;6.35;2.67;;;1.70;65.20;;;;;;5049243;28;46355;-82
2022/01/22 03:31:42;;;;;;;4.30;2.70;;;1.70;65.20;;;;;;5045365;28;46287;-79
2022/01/22 03:34:11;;;;;;;7.43;2.47;;;1.70;65.00;;;;;;5025045;28;48564;-80
2022/01/22 03:36:37;;;;;;;5.13;2.90;;;1.70;65.00;;;;;;5042016;28;45910;-81
2022/01/22 03:39:08;;;;;;;4.63;2.40;;;1.70;65.10;;;;;;5029815;28;46558;-78
2022/01/22 03:41:34;;;;;;;8.45;2.97;;;1.70;65.00;;;;;;5042704;28;46275;-81
2022/01/22 03:44:00;;;;;;;4.80;2.35;;;1.70;65.00;;;;;;5043697;28;47263;-80
2022/01/22 03:46:26;;;;;;;5.88;2.70;;;1.70;65.10;;;;;;5047004;28;46434;-81
2022/01/22 03:48:54;;;;;;;11.60;2.70;;;1.70;65.00;;;;;;5045574;28;46355;-80
2022/01/22 03:51:20;;;;;;;4.20;2.90;;;1.80;65.00;;;;;;5042573;28;46405;-79
2022/01/22 03:53:45;;;;;;;3.20;2.53;;;1.80;65.00;;;;;;5045453;28;46530;-80
2022/01/22 03:56:12;;;;;;;4.07;2.40;;;1.80;64.90;;;;;;5043988;28;46414;-81
2022/01/22 03:58:43;;;;;;;4.22;2.10;;;1.80;65.00;;;;;;5038241;28;46476;-81
2022/01/22 04:03:39;;;;;;;7.70;2.65;;;1.80;65.00;;;;;;5040373;28;46399;-79
2022/01/22 04:07:11;;;;;;;6.60;3.08;;;1.80;64.90;;;;;;5035627;28;46475;-79
2022/01/22 04:09:07;;;;;;;4.60;2.38;;;1.90;64.80;;;;;;5041833;28;46366;-80
2022/01/22 04:11:37;;;;;;;5.32;2.60;;;1.90;64.70;;;;;;5048179;28;46351;-80
2022/01/22 04:14:05;;;;;;;2.67;1.85;;;1.80;64.70;;;;;;5050749;28;47215;-81
2022/01/22 04:16:31;;;;;;;8.95;2.67;;;1.80;64.80;;;;;;5039524;28;46727;-81
2022/01/22 04:27:20;;;;;;;5.40;2.17;;;1.90;65.00;;;;;;5049041;28;46704;-82
2022/01/22 04:29:46;;;;;;;6.50;2.40;;;1.90;64.80;;;;;;5051987;28;45919;-80
2022/01/22 04:32:11;;;;;;;4.83;2.60;;;1.90;66.00;;;;;;5042404;28;46340;-82
2022/01/22 04:34:37;;;;;;;7.10;2.13;;;2.00;65.00;;;;;;5049652;28;51208;-82
2022/01/22 04:37:03;;;;;;;6.47;2.93;;;1.90;64.90;;;;;;5050006;28;46299;-79
2022/01/22 04:39:28;;;;;;;12.40;2.70;;;1.90;64.90;;;;;;5036806;28;46510;-80
2022/01/22 04:41:56;;;;;;;3.77;2.50;;;1.90;64.90;;;;;;5051963;28;46426;-82
2022/01/22 04:44:26;;;;;;;8.20;2.67;;;1.90;64.90;;;;;;5053572;28;47158;-82
2022/01/22 04:47:13;;;;;;;3.38;2.50;;;1.90;64.80;;;;;;5043136;28;46457;-84
2022/01/22 04:55:04;;;;;;;5.82;2.50;;;1.90;64.70;;;;;;5050149;28;46304;-80
2022/01/22 04:57:34;;;;;;;5.38;3.08;;;2.00;66.00;;;;;;5054777;28;45862;-80
2022/01/22 05:00:00;;;;;;;5.47;2.85;;;2.00;64.80;;;;;;5055694;28;46441;-82
2022/01/22 05:02:26;;;;;;;5.90;2.70;;;2.00;64.80;;;;;;5051413;28;46559;-81
2022/01/22 05:04:52;;;;;;;5.10;2.97;;;2.00;65.00;;;;;;5051860;28;47664;-82
2022/01/22 05:07:17;;;;;;;5.22;2.75;;;2.00;64.90;;;;;;5039142;28;46693;-84
2022/01/22 05:09:45;;;;;;;5.97;2.80;;;2.00;64.90;;;;;;5053605;28;46332;-84
2022/01/22 05:12:14;;;;;;;4.78;3.00;;;2.00;65.00;;;;;;5018006;28;46696;-79
2022/01/22 05:14:46;;;;;;;5.95;2.92;;;2.00;65.00;;;;;;5046938;28;46019;-82
2022/01/22 05:17:13;;;;;;;5.97;3.50;;;1.90;65.20;;;;;;5048911;28;46615;-80
2022/01/22 05:22:17;;;;;;;5.50;3.30;;;1.70;65.80;;;;;;5043704;28;46389;-81
2022/01/22 05:24:48;;;;;;;6.05;3.25;;;1.70;66.10;;;;;;5034504;28;48167;-84
2022/01/22 05:37:54;;;;;;;8.48;3.78;;;1.60;66.50;;;;;;5041054;28;46410;-79
2022/01/22 05:40:20;;;;;;;12.83;4.93;;;1.60;66.70;;;;;;5044669;28;46347;-81
2022/01/22 05:42:45;;;;;;;7.10;4.20;;;1.50;66.70;;;;;;5030928;28;46509;-81
2022/01/22 05:45:11;;;;;;;8.50;4.40;;;1.50;66.70;;;;;;5043813;28;47103;-79
2022/01/22 05:47:37;;;;;;;8.90;4.60;;;1.50;66.90;;;;;;5043760;28;46371;-81
2022/01/22 05:50:09;;;;;;;6.83;4.40;;;1.50;66.80;;;;;;5043795;28;46341;-80
2022/01/22 05:52:51;;;;;;;7.97;4.30;;;1.50;66.80;;;;;;5043550;28;46840;-81
2022/01/22 05:55:41;;;;;;;11.95;4.85;;;1.70;67.00;;;;;;5044874;28;46829;-81
2022/01/22 06:00:52;;;;;;;10.50;5.10;;;1.60;66.90;;;;;;5044122;28;45763;-80
2022/01/22 06:03:18;;;;;;;7.57;4.97;;;1.60;67.00;;;;;;5043846;28;46296;-81
2022/01/22 06:05:44;;;;;;;10.88;5.15;;;1.50;67.20;;;;;;5050585;28;46932;-81
2022/01/22 06:08:15;;;;;;;10.30;5.97;;;1.60;67.30;;;;;;5044631;28;46297;-82
2022/01/22 06:10:40;;;;;;;7.28;5.22;;;1.50;67.30;;;;;;5044624;28;46641;-81
2022/01/22 06:13:19;;;;;;;7.33;4.80;;;1.60;67.40;;;;;;5046208;28;46458;-82
2022/01/22 06:15:45;;;;;;;13.65;5.38;;;1.50;67.40;;;;;;5045464;28;46374;-80
2022/01/22 06:18:10;;;;;;;13.77;5.00;;;1.50;67.70;;;;;;5050833;28;46380;-81
2022/01/22 06:20:36;;;;;;;12.27;5.30;;;1.40;68.40;;;;;;5035670;28;47080;-83
2022/01/22 06:23:02;;;;;;;8.53;5.23;;;1.40;68.80;;;;;;5051371;28;46852;-81
2022/01/22 06:25:29;;;;;;;12.82;6.47;;;1.40;68.90;;;;;;5058236;28;46401;-84
2022/01/22 06:27:54;;;;;;;10.73;5.25;;;1.40;69.00;;;;;;5058323;28;46571;-81
2022/01/22 06:30:20;;;;;;;8.87;5.67;;;1.40;69.10;;;;;;5053135;28;46453;-81
2022/01/22 06:32:46;;;;;;;12.10;5.73;;;1.30;69.50;;;;;;5049263;28;46447;-84
2022/01/22 06:35:12;;;;;;;11.43;6.30;;;1.20;70.10;;;;;;5050975;28;46997;-84
2022/01/22 06:37:37;;;;;;;8.90;5.23;;;1.30;70.50;;;;;;5042919;28;46293;-84
2022/01/22 06:42:30;;;;;;;10.37;5.77;;;1.20;70.40;;;;;;5046863;28;46312;-81
2022/01/22 06:45:00;;;;;;;7.30;5.25;;;1.30;71.70;;;;;;5048998;28;46422;-83
2022/01/22 06:47:26;;;;;;;9.38;5.43;;;1.20;70.40;;;;;;5052065;28;46465;-82
2022/01/22 06:49:52;;;;;;;9.65;5.82;;;1.20;70.40;;;;;;5052053;28;46415;-79
2022/01/22 06:52:18;;;;;;;10.80;6.33;;;1.20;70.40;;;;;;5044517;28;45975;-79
2022/01/22 06:54:44;;;;;;;16.87;8.53;;;1.20;70.40;;;;;;5042478;28;46537;-78
2022/01/22 06:57:10;;;;;;;14.15;7.93;;;1.20;70.40;;;;;;5041710;28;46810;-79
2022/01/22 06:59:35;;;;;;;14.83;7.53;;;1.20;70.40;;;;;;5032308;28;46672;-81
2022/01/22 07:02:01;;;;;;;17.23;6.50;;;1.20;70.40;;;;;;5047306;28;46603;-82
2022/01/22 07:04:27;;;;;;;14.10;7.67;;;1.20;70.40;;;;;;5049612;28;48498;-79
2022/01/22 07:06:52;;;;;;;14.27;7.47;;;1.20;70.40;;;;;;5051319;28;46351;-80
2022/01/22 07:09:18;;;;;;;13.47;7.00;;;1.20;70.60;;;;;;5051871;28;46463;-78
2022/01/22 07:11:43;;;;;;;9.60;5.10;;;1.20;70.60;;;;;;5041718;28;46509;-81
2022/01/22 07:14:09;;;;;;;12.70;5.80;;;1.20;70.50;;;;;;5041023;28;56108;-80
2022/01/22 07:16:34;;;;;;;11.10;4.97;;;1.20;70.70;;;;;;5042068;28;46404;-80
2022/01/22 07:19:02;;;;;;;9.50;5.83;;;1.20;70.90;;;;;;5042667;28;46481;-79
2022/01/22 07:21:30;;;;;;;11.02;5.55;;;1.20;71.00;;;;;;5039532;28;46350;-79
2022/01/22 07:26:22;;;;;;;12.23;5.07;;;1.30;71.00;;;;;;5043505;28;46498;-81
2022/01/22 07:28:48;;;;;;;8.90;5.15;;;1.30;71.20;;;;;;5032718;28;46414;-81
2022/01/22 07:31:13;;;;;;;9.13;5.70;;;1.30;70.90;;;;;;5043444;28;46702;-81
2022/01/22 07:33:39;;;;;;;12.00;6.40;;;1.30;70.50;;;;;;5009391;28;48464;-80
2022/01/22 07:36:05;;;;;;;11.13;6.97;;;1.40;70.60;;;;;;5046386;28;46506;-79
2022/01/22 07:38:31;;;;;;;7.60;5.22;;;1.40;71.10;;;;;;5034159;28;46356;-83
2022/01/22 07:40:56;;;;;;;8.63;4.87;;;1.30;72.50;;;;;;5023624;28;46538;-83
2022/01/22 07:43:22;;;;;;;8.00;5.50;;;1.30;72.90;;;;;;5040924;28;46720;-81
2022/01/22 07:45:48;;;;;;;7.30;5.30;;;1.20;73.60;;;;;;5040443;28;46434;-80
2022/01/22 07:48:13;;;;;;;12.10;5.50;;;1.10;74.00;;;;;;5042653;28;46441;-81
2022/01/22 07:50:39;;;;;;;9.07;4.57;;;1.10;74.20;;;;;;5039458;28;46320;-81
2022/01/22 07:53:04;;;;;;;10.17;5.50;;;1.10;74.40;;;;;;5057408;28;46272;-82
2022/01/22 07:55:30;;;;;;;9.20;5.20;;;1.20;74.20;;;;;;5061639;28;45695;-82
2022/01/22 07:57:56;;;;;;;9.97;5.07;;;1.20;74.20;;;;;;5054859;28;46225;-81
2022/01/22 08:00:22;;;;;;;9.15;5.95;;;1.10;74.40;;;;;;5051447;28;46581;-82
2022/01/22 08:02:48;;;;;;;9.25;5.30;;;1.20;74.50;;;;;;5039846;28;48380;-83
2022/01/22 08:05:14;;;;;;;9.10;5.53;;;1.30;74.10;;;;;;5038678;28;45785;-82
2022/01/22 08:07:44;;;;;;;10.43;5.30;;;1.30;74.10;;;;;;5046629;28;46336;-81
2022/01/22 08:10:10;;;;;;;8.90;4.50;;;1.30;74.20;;;;;;5045644;28;46304;-82
2022/01/22 08:12:40;;;;;;;14.82;7.00;;;1.30;74.10;;;;;;5042370;28;46341;-84
2022/01/22 08:15:07;;;;;;;50.22;22.70;;;1.30;74.10;;;;;;5044042;28;46342;-86
2022/01/22 08:17:33;;;;;;;14.65;9.80;;;1.50;73.70;;;;;;5044493;28;46438;-83
2022/01/22 08:19:59;;;;;;;14.30;11.37;;;1.50;73.50;;;;;;5048414;28;46916;-86
2022/01/22 08:22:24;;;;;;;17.38;11.70;;;1.70;73.30;;;;;;5043278;28;46708;-83
2022/01/22 08:24:53;;;;;;;16.00;9.30;;;1.70;73.10;;;;;;5049704;28;45784;-86
2022/01/22 08:29:44;;;;;;;20.07;10.27;;;1.80;73.70;;;;;;5047681;28;46399;-85
2022/01/22 08:37:25;;;;;;;15.55;10.18;;;1.80;73.10;;;;;;5041018;28;46697;-84
2022/01/22 08:39:51;;;;;;;19.53;9.23;;;1.90;73.10;;;;;;5042350;28;46420;-84
2022/01/22 08:42:17;;;;;;;22.00;14.90;;;1.90;72.90;;;;;;5029605;28;48195;-83
2022/01/22 08:44:42;;;;;;;21.30;13.03;;;1.90;72.70;;;;;;5042082;28;46870;-85
2022/01/22 08:47:08;;;;;;;17.27;9.10;;;2.00;72.50;;;;;;5028972;28;46500;-83
2022/01/22 08:49:34;;;;;;;12.20;6.90;;;2.10;72.30;;;;;;5042398;28;45921;-84
2022/01/22 08:52:01;;;;;;;14.37;6.57;;;2.20;72.10;;;;;;5042256;28;46505;-84
2022/01/22 08:54:27;;;;;;;8.68;5.32;;;2.20;72.30;;;;;;5025236;28;46811;-82
2022/01/22 08:56:53;;;;;;;8.88;6.10;;;2.20;72.50;;;;;;5049664;28;46548;-83
2022/01/22 08:59:19;;;;;;;9.88;5.88;;;2.10;72.80;;;;;;5040820;28;46314;-83
2022/01/22 09:01:48;;;;;;;10.93;5.87;;;2.00;73.10;;;;;;5036036;28;48373;-84
2022/01/22 09:04:14;;;;;;;9.80;5.13;;;2.00;73.50;;;;;;5035125;28;46907;-85
2022/01/22 09:06:40;;;;;;;10.27;5.13;;;1.90;73.70;;;;;;5046602;28;46563;-86
2022/01/22 09:09:09;;;;;;;8.27;5.77;;;2.00;73.80;;;;;;5050036;28;46499;-85
2022/01/22 09:11:36;;;;;;;11.85;6.32;;;1.90;73.80;;;;;;5050478;28;46256;-84
2022/01/22 09:14:04;;;;;;;8.93;4.93;;;2.00;73.80;;;;;;5044513;28;46414;-84
2022/01/22 09:16:29;;;;;;;10.50;6.70;;;2.00;73.40;;;;;;5046490;28;46359;-82
2022/01/22 09:18:58;;;;;;;11.03;5.37;;;2.10;73.50;;;;;;5035654;28;46595;-83
2022/01/22 09:21:24;;;;;;;6.07;4.53;;;2.10;73.20;;;;;;5031284;28;48518;-86
2022/01/22 09:23:49;;;;;;;8.50;5.00;;;2.10;73.10;;;;;;5057741;28;46838;-86
2022/01/22 09:26:48;;;;;;;9.43;4.70;;;2.20;72.50;;;;;;5163853;27;46352;-65
2022/01/22 09:29:23;;;;;;;7.20;5.15;;;2.30;72.40;;;;;;5128409;27;45893;-66
2022/01/22 09:31:49;;;;;;;8.80;5.30;;;2.30;72.30;;;;;;5129355;27;46486;-66
2022/01/22 09:34:20;;;;;;;6.30;4.50;;;2.30;72.50;;;;;;5128973;27;45979;-65
2022/01/22 09:36:51;;;;;;;8.40;4.78;;;2.40;72.10;;;;;;5128980;27;46004;-65
2022/01/22 09:39:27;;;;;;;7.03;4.70;;;2.40;72.30;;;;;;5129351;27;46855;-66
2022/01/22 09:41:58;;;;;;;7.68;5.00;;;2.40;72.30;;;;;;5129115;27;45825;-66
2022/01/22 09:44:26;;;;;;;5.80;4.60;;;2.30;72.20;;;;;;5133002;27;46463;-66
2022/01/22 09:46:59;;;;;;;10.63;6.88;;;2.20;72.80;;;;;;5134223;27;46419;-66
2022/01/22 09:49:28;;;;;;;6.78;4.65;;;2.10;73.40;;;;;;5126970;27;46457;-67
2022/01/22 09:51:57;;;;;;;9.40;5.50;;;2.20;73.30;;;;;;5125936;27;46377;-66
2022/01/22 09:54:25;;;;;;;6.95;4.30;;;2.20;73.30;;;;;;5125145;27;46376;-66
2022/01/22 09:56:54;;;;;;;6.43;4.30;;;2.10;73.50;;;;;;5126736;27;46341;-66
2022/01/22 09:59:20;;;;;;;7.38;4.68;;;2.00;73.90;;;;;;5112978;27;46538;-65
2022/01/22 10:01:48;;;;;;;8.90;4.93;;;2.00;74.00;;;;;;5130704;27;46449;-64
2022/01/22 10:04:40;;;;;;;7.97;5.70;;;1.90;74.30;;;;;;5129972;27;46517;-66
2022/01/22 10:07:16;;;;;;;10.10;5.22;;;1.90;74.90;;;;;;5120856;27;47317;-65
2022/01/22 10:10:01;;;;;;;6.30;3.53;;;2.00;74.80;;;;;;5128716;27;46535;-65
2022/01/22 10:12:29;;;;;;;8.20;4.10;;;1.70;76.40;;;;;;5128823;27;46398;-65
2022/01/22 10:15:07;;;;;;;8.38;5.38;;;1.60;78.20;;;;;;5130660;27;46687;-65
2022/01/22 10:17:53;;;;;;;8.57;5.35;;;1.80;78.00;;;;;;5124126;27;47208;-66
2022/01/22 10:20:26;;;;;;;11.85;6.32;;;2.20;76.80;;;;;;5128369;27;46292;-67
2022/01/22 10:23:05;;;;;;;7.00;5.78;;;2.30;75.90;;;;;;5126660;27;46353;-66
2022/01/22 10:25:45;;;;;;;7.97;5.72;;;2.50;75.30;;;;;;5131268;27;46434;-67
2022/01/22 10:28:22;;;;;;;14.35;6.07;;;2.60;75.10;;;;;;5125288;27;46404;-66
2022/01/22 10:31:18;;;;;;;7.80;5.10;;;2.70;74.60;;;;;;5136016;27;46342;-67
2022/01/22 10:34:02;;;;;;;8.20;4.22;;;2.70;74.40;;;;;;5127357;27;46314;-63
2022/01/22 10:36:27;;;;;;;4.50;3.50;;;2.50;75.00;;;;;;5121314;27;46508;-63
2022/01/22 10:38:54;;;;;;;8.10;4.53;;;2.40;75.40;;;;;;5115945;27;46007;-64
2022/01/22 10:41:41;;;;;;;7.90;4.55;;;2.40;75.50;;;;;;5118560;27;46506;-64
2022/01/22 10:44:10;;;;;;;7.63;4.90;;;2.50;74.90;;;;;;5105631;27;45853;-65
2022/01/22 10:47:02;;;;;;;9.75;5.22;;;2.70;74.40;;;;;;5126523;27;46402;-65
2022/01/22 10:49:28;;;;;;;7.47;5.22;;;2.60;74.20;;;;;;5121414;27;46559;-64
2022/01/22 10:52:00;;;;;;;11.57;5.90;;;2.70;74.10;;;;;;5121247;27;46326;-63
2022/01/22 10:54:29;;;;;;;8.88;5.20;;;2.80;74.00;;;;;;5121566;27;46322;-65
2022/01/22 10:57:11;;;;;;;7.32;4.78;;;2.90;73.40;;;;;;5112017;27;46544;-65
2022/01/22 10:59:45;;;;;;;10.10;5.57;;;3.10;72.40;;;;;;5112896;27;49313;-66
2022/01/22 11:02:12;;;;;;;8.55;5.05;;;3.20;72.10;;;;;;5113169;27;46383;-65
2022/01/22 11:04:37;;;;;;;11.27;5.60;;;3.00;72.30;;;;;;5114805;27;46291;-65
2022/01/22 11:07:14;;;;;;;15.03;6.03;;;3.10;72.20;;;;;;5115703;27;46199;-65
2022/01/22 11:09:40;;;;;;;7.32;5.50;;;3.20;72.10;;;;;;5114993;27;46260;-65
2022/01/22 11:12:06;;;;;;;9.50;5.63;;;3.40;72.30;;;;;;5112668;27;46473;-66
2022/01/22 11:14:37;;;;;;;10.57;5.82;;;3.60;72.40;;;;;;5122051;27;46481;-67
2022/01/22 11:17:05;;;;;;;11.80;6.40;;;3.60;72.00;;;;;;5116724;27;46400;-65
2022/01/22 11:19:33;;;;;;;9.10;5.55;;;3.60;72.50;;;;;;5118024;27;46295;-65
2022/01/22 11:22:09;;;;;;;9.10;5.80;;;3.70;72.50;;;;;;5111153;27;46421;-66
2022/01/22 11:24:41;;;;;;;8.07;5.45;;;3.70;72.20;;;;;;5113467;27;46366;-64
2022/01/22 11:27:10;;;;;;;10.40;6.03;;;3.80;71.80;;;;;;5114767;27;46467;-67
2022/01/22 11:29:45;;;;;;;8.45;5.60;;;3.80;71.50;;;;;;5114853;27;46585;-64
2022/01/22 11:32:12;;;;;;;9.50;5.55;;;3.80;71.50;;;;;;5115553;27;46426;-66
2022/01/22 11:34:40;;;;;;;9.80;5.47;;;3.90;71.50;;;;;;5117028;27;46426;-66
2022/01/22 11:37:29;;;;;;;8.40;5.38;;;3.90;71.30;;;;;;5109522;27;46412;-65
2022/01/22 11:40:24;;;;;;;7.40;5.10;;;3.90;71.20;;;;;;5111531;27;46942;-64
2022/01/22 11:43:08;;;;;;;8.60;5.47;;;3.80;71.40;;;;;;5113104;27;46360;-66
2022/01/22 11:45:41;;;;;;;6.35;4.75;;;3.70;71.50;;;;;;5111369;27;46283;-66
2022/01/22 11:48:25;;;;;;;13.48;4.80;;;3.70;71.60;;;;;;5113893;27;46359;-65
2022/01/22 11:50:54;;;;;;;9.57;5.53;;;3.60;71.80;;;;;;5114294;27;46345;-66
2022/01/22 11:53:34;;;;;;;9.18;4.95;;;3.60;71.60;;;;;;5113871;27;46451;-64
2022/01/22 11:56:09;;;;;;;11.45;5.75;;;3.50;71.60;;;;;;5116738;27;46425;-64
2022/01/22 11:58:58;;;;;;;10.07;5.00;;;3.50;71.90;;;;;;5116109;27;46553;-66
2022/01/22 12:01:52;;;;;;;10.00;6.13;;;3.60;71.40;;;;;;5115224;27;46259;-64
2022/01/22 12:04:37;;;;;;;8.55;6.20;;;3.80;70.90;;;;;;5118339;27;46432;-63
2022/01/22 12:07:03;;;;;;;9.30;5.88;;;3.80;70.70;;;;;;5120306;27;46284;-64
2022/01/22 12:10:04;;;;;;;10.60;5.90;;;3.90;70.50;;;;;;5113544;27;45983;-63
2022/01/22 12:15:30;;;;;;;9.43;6.00;;;3.80;70.20;;;;;;5116293;27;46409;-63
2022/01/22 12:18:03;;;;;;;8.55;5.43;;;3.90;70.40;;;;;;5113874;27;46434;-65
2022/01/22 12:22:57;;;;;;;8.63;5.90;;;3.50;70.80;;;;;;5120431;27;46504;-65
2022/01/22 12:25:23;;;;;;;9.60;5.17;;;3.60;70.60;;;;;;5117818;27;46521;-64
2022/01/22 12:27:51;;;;;;;8.23;5.33;;;3.70;70.10;;;;;;5113255;27;46465;-64
2022/01/22 12:30:39;;;;;;;8.23;5.10;;;3.70;70.10;;;;;;5108871;27;46653;-64
2022/01/22 12:33:12;;;;;;;11.93;5.57;;;3.90;69.90;;;;;;5108734;27;46381;-63
2022/01/22 12:35:41;;;;;;;9.30;5.13;;;4.00;69.60;;;;;;5119717;27;46391;-63
2022/01/22 12:38:27;;;;;;;8.60;4.70;;;4.10;69.20;;;;;;5108745;27;46319;-64
2022/01/22 12:40:59;;;;;;;10.70;5.85;;;4.20;68.80;;;;;;5113325;27;45812;-64
2022/01/22 12:43:34;;;;;;;9.27;4.95;;;4.10;68.80;;;;;;5117182;27;46634;-63
2022/01/22 12:46:03;;;;;;;8.55;4.97;;;4.00;69.20;;;;;;5115531;27;45786;-64
2022/01/22 12:48:34;;;;;;;8.10;4.97;;;4.10;69.40;;;;;;5116030;27;46473;-64
2022/01/22 12:51:04;;;;;;;8.50;4.87;;;4.00;69.30;;;;;;5110888;27;46377;-63
2022/01/22 12:53:31;;;;;;;9.45;5.47;;;4.00;69.40;;;;;;5113403;27;47600;-63
2022/01/22 12:58:27;;;;;;;10.13;5.77;;;4.10;69.10;;;;;;5110645;27;46364;-64
2022/01/22 13:01:12;;;;;;;8.30;5.47;;;4.10;69.30;;;;;;5114494;27;46590;-64
2022/01/22 13:03:41;;;;;;;8.70;5.97;;;4.10;69.30;;;;;;5123138;27;47874;-63
2022/01/22 13:06:07;;;;;;;6.38;4.97;;;4.10;69.40;;;;;;5110267;27;45899;-64
2022/01/22 13:08:34;;;;;;;8.60;5.05;;;4.00;69.20;;;;;;5117554;27;46413;-63
2022/01/22 13:11:03;;;;;;;11.87;5.27;;;3.90;69.20;;;;;;5130038;27;46226;-64
2022/01/22 13:13:29;;;;;;;6.82;4.70;;;3.90;69.20;;;;;;5117730;27;47881;-63
2022/01/22 13:16:04;;;;;;;11.38;6.35;;;3.90;69.20;;;;;;5116192;27;46493;-63
2022/01/22 13:18:42;;;;;;;15.93;9.90;;;3.80;70.40;;;;;;5114138;27;45828;-65
2022/01/22 13:21:08;;;;;;;9.60;6.50;;;3.80;69.20;;;;;;5115531;27;46491;-65
2022/01/22 13:23:34;;;;;;;8.10;5.63;;;3.80;69.20;;;;;;5109662;27;46419;-64
2022/01/22 13:26:00;;;;;;;12.35;5.40;;;3.70;69.20;;;;;;5114327;27;46365;-64
2022/01/22 13:28:32;;;;;;;11.33;5.70;;;3.80;68.90;;;;;;5112922;27;46303;-64
2022/01/22 13:31:03;;;;;;;9.48;5.13;;;3.60;69.00;;;;;;5115255;27;46367;-65
2022/01/22 13:49:40;;;;;;;10.63;6.65;;;3.60;69.20;;;;;;5110124;27;46414;-63
2022/01/22 13:52:12;;;;;;;10.87;6.60;;;3.70;69.10;;;;;;5110536;27;46501;-63
2022/01/22 13:54:40;;;;;;;11.40;5.85;;;3.80;69.00;;;;;;5111135;27;48953;-63
2022/01/22 13:57:09;;;;;;;12.02;6.50;;;3.80;68.90;;;;;;5112454;27;46476;-65
2022/01/22 13:59:41;;;;;;;9.20;6.28;;;3.80;68.80;;;;;;5109243;27;46370;-64
2022/01/22 14:04:52;;;;;;;10.98;6.25;;;3.80;69.00;;;;;;5109186;27;46102;-65
2022/01/22 14:07:27;;;;;;;9.20;6.50;;;3.70;69.10;;;;;;5108472;27;46407;-64
2022/01/22 14:10:15;;;;;;;10.45;6.20;;;3.70;69.40;;;;;;5116499;27;46411;-64
2022/01/22 14:12:42;;;;;;;11.05;6.68;;;3.70;69.40;;;;;;5112665;27;46416;-64
2022/01/22 14:15:23;;;;;;;11.23;6.80;;;3.80;69.20;;;;;;5113001;27;47151;-63
2022/01/22 14:18:19;;;;;;;11.98;6.82;;;3.80;69.10;;;;;;5114192;27;46294;-64
2022/01/22 14:21:18;;;;;;;20.23;6.95;;;3.80;69.30;;;;;;5114883;27;45864;-63
2022/01/22 14:23:45;;;;;;;9.38;6.03;;;3.80;69.20;;;;;;5110723;27;46562;-62
2022/01/22 14:26:29;;;;;;;11.75;6.93;;;3.80;69.20;;;;;;5109680;27;49446;-63
2022/01/22 14:29:08;;;;;;;12.40;7.32;;;3.80;69.30;;;;;;5114119;27;46307;-63
2022/01/22 14:31:57;;;;;;;10.75;6.80;;;3.80;69.20;;;;;;5116696;27;46410;-62
2022/01/22 14:34:32;;;;;;;11.88;7.18;;;3.80;69.50;;;;;;5112339;27;46598;-63
2022/01/22 14:36:58;;;;;;;10.90;7.03;;;3.70;69.50;;;;;;5111143;27;46255;-64
2022/01/22 14:44:47;;;;;;;11.67;8.00;;;3.70;69.50;;;;;;5113399;27;46593;-64
2022/01/22 14:47:21;;;;;;;11.90;8.57;;;3.70;69.60;;;;;;5119052;27;46347;-63
2022/01/22 14:49:48;;;;;;;14.43;7.60;;;3.70;69.70;;;;;;5113393;27;45850;-63
2022/01/22 14:52:19;;;;;;;13.50;7.13;;;3.70;69.70;;;;;;5115654;27;46321;-64
2022/01/22 14:54:47;;;;;;;22.70;12.40;;;3.70;69.70;;;;;;5116349;27;45851;-63
2022/01/22 14:57:18;;;;;;;22.58;12.40;;;3.70;69.60;;;;;;5112485;27;46468;-63
2022/01/22 14:59:43;;;;;;;23.42;13.75;;;3.70;69.50;;;;;;5118746;27;46336;-63
2022/01/22 15:02:10;;;;;;;19.57;11.33;;;3.80;69.40;;;;;;5116066;27;46535;-62
2022/01/22 15:04:37;;;;;;;22.60;14.03;;;3.60;69.70;;;;;;5115668;27;46771;-63
2022/01/22 15:07:06;;;;;;;20.52;12.23;;;3.60;69.70;;;;;;5113143;27;46477;-62
2022/01/22 15:09:33;;;;;;;30.95;15.52;;;3.60;69.80;;;;;;5113806;27;46362;-62
2022/01/22 15:12:02;;;;;;;19.88;12.43;;;3.50;69.90;;;;;;5112504;27;45894;-63
2022/01/22 15:14:28;;;;;;;17.00;11.18;;;3.40;70.10;;;;;;5111357;27;46334;-62